createdAt,value
2023-05-11T00:03:35.678Z,101338.88
2023-05-11T00:06:04.512Z,101333.15
2023-05-11T00:08:32.814Z,101329.37
2023-05-11T00:11:01.352Z,101327.95
2023-05-11T00:13:29.835Z,101322.61
2023-05-11T00:15:58.188Z,101325.30
2023-05-11T00:18:26.556Z,101324.60
2023-05-11T00:20:54.736Z,101328.39
2023-05-11T00:23:22.770Z,101325.67
2023-05-11T00:25:51.051Z,101331.80
2023-05-11T00:28:19.207Z,101336.23
2023-05-11T00:30:47.189Z,101334.19
2023-05-11T00:33:15.381Z,101331.79
2023-05-11T00:35:43.379Z,101332.46
2023-05-11T00:38:12.141Z,101334.59
2023-05-11T00:40:40.503Z,101333.34
2023-05-11T00:43:08.614Z,101334.21
2023-05-11T00:45:36.801Z,101330.56
2023-05-11T00:48:05.136Z,101331.59
2023-05-11T00:50:34.807Z,101327.45
2023-05-11T00:53:03.539Z,101327.07
2023-05-11T00:55:31.654Z,101324.33
2023-05-11T00:58:00.244Z,101325.20
2023-05-11T01:00:28.693Z,101322.84
2023-05-11T01:02:58.801Z,101326.97
2023-05-11T01:05:35.907Z,101323.91
2023-05-11T01:08:50.176Z,101321.19
2023-05-11T01:11:34.082Z,101311.64
2023-05-11T01:14:17.688Z,101313.39
2023-05-11T01:16:49.777Z,101311.92
2023-05-11T01:19:45.354Z,101314.25
2023-05-11T01:22:28.889Z,101315.31
2023-05-11T01:25:31.583Z,101314.86
2023-05-11T01:28:27.488Z,101313.06
2023-05-11T01:31:17.152Z,101315.07
2023-05-11T01:34:30.075Z,101316.17
2023-05-11T01:37:09.733Z,101317.14
2023-05-11T01:39:49.078Z,101315.17
2023-05-11T01:42:24.540Z,101312.31
2023-05-11T01:44:57.676Z,101316.37
2023-05-11T01:47:30.371Z,101314.68
2023-05-11T01:50:00.948Z,101312.75
2023-05-11T01:52:31.645Z,101314.88
2023-05-11T01:55:04.324Z,101311.65
2023-05-11T01:57:34.582Z,101311.30
2023-05-11T02:00:04.672Z,101305.39
2023-05-11T02:02:35.771Z,101303.05
2023-05-11T02:05:07.355Z,101302.69
2023-05-11T02:07:38.811Z,101298.92
2023-05-11T02:10:07.981Z,101295.52
2023-05-11T02:12:37.492Z,101294.64
2023-05-11T02:15:09.220Z,101296.77
2023-05-11T02:17:39.863Z,101293.92
2023-05-11T02:20:11.055Z,101290.38
2023-05-11T02:22:40.444Z,101294.14
2023-05-11T02:25:11.092Z,101290.71
2023-05-11T02:27:41.655Z,101286.95
2023-05-11T02:30:11.183Z,101284.42
2023-05-11T02:32:44.383Z,101280.09
2023-05-11T02:35:23.833Z,101279.75
2023-05-11T02:37:56.871Z,101280.71
2023-05-11T02:40:33.648Z,101279.48
2023-05-11T02:43:14.311Z,101278.95
2023-05-11T02:45:46.669Z,101272.98
2023-05-11T02:48:26.653Z,101269.21
2023-05-11T02:50:57.499Z,101265.96
2023-05-11T02:53:28.807Z,101266.89
2023-05-11T02:55:58.550Z,101270.09
2023-05-11T02:58:26.958Z,101266.67
2023-05-11T03:00:55.288Z,101268.66
2023-05-11T03:03:23.876Z,101266.86
2023-05-11T03:05:52.136Z,101268.84
2023-05-11T03:08:20.213Z,101267.04
2023-05-11T03:10:49.692Z,101265.98
2023-05-11T03:13:20.030Z,101266.89
2023-05-11T03:15:48.483Z,101266.34
2023-05-11T03:18:18.688Z,101265.65
2023-05-11T03:20:48.565Z,101264.23
2023-05-11T03:23:19.514Z,101270.14
2023-05-11T03:25:48.472Z,101269.25
2023-05-11T03:28:20.404Z,101269.80
2023-05-11T03:30:51.580Z,101272.47
2023-05-11T03:33:20.537Z,101268.33
2023-05-11T03:35:51.534Z,101270.52
2023-05-11T03:38:23.203Z,101266.05
2023-05-11T03:40:53.177Z,101266.75
2023-05-11T03:43:23.299Z,101266.73
2023-05-11T03:45:53.742Z,101266.52
2023-05-11T03:48:24.073Z,101265.27
2023-05-11T03:50:52.520Z,101263.48
2023-05-11T03:53:20.963Z,101264.54
2023-05-11T03:55:49.707Z,101261.09
2023-05-11T03:58:17.893Z,101262.15
2023-05-11T04:00:46.338Z,101263.80
2023-05-11T04:03:15.269Z,101267.20
2023-05-11T04:05:43.366Z,101264.66
2023-05-11T04:08:12.782Z,101263.79
2023-05-11T04:10:41.000Z,101263.79
2023-05-11T04:13:09.049Z,101262.56
2023-05-11T04:15:38.208Z,101262.98
2023-05-11T04:18:07.273Z,101264.46
2023-05-11T04:20:35.723Z,101268.40
2023-05-11T04:23:03.726Z,101267.34
2023-05-11T04:25:31.997Z,101264.48
2023-05-11T04:28:00.062Z,101260.89
2023-05-11T04:30:28.342Z,101259.66
2023-05-11T04:32:56.985Z,101260.75
2023-05-11T04:35:25.066Z,101261.29
2023-05-11T04:37:53.168Z,101261.64
2023-05-11T04:40:22.532Z,101264.91
2023-05-11T04:42:51.019Z,101264.39
2023-05-11T04:45:19.802Z,101264.91
2023-05-11T04:47:48.406Z,101265.63
2023-05-11T04:50:16.656Z,101267.05
2023-05-11T04:52:44.982Z,101267.42
2023-05-11T04:55:13.543Z,101263.30
2023-05-11T04:57:41.578Z,101264.36
2023-05-11T05:00:10.833Z,101268.48
2023-05-11T05:02:39.442Z,101265.08
2023-05-11T05:05:08.295Z,101265.42
2023-05-11T05:07:36.495Z,101270.98
2023-05-11T05:10:05.617Z,101270.83
2023-05-11T05:12:33.638Z,101268.15
2023-05-11T05:15:01.765Z,101268.54
2023-05-11T05:17:30.072Z,101269.45
2023-05-11T05:19:58.440Z,101273.90
2023-05-11T05:22:27.325Z,101271.56
2023-05-11T05:24:56.196Z,101276.05
2023-05-11T05:27:24.994Z,101276.77
2023-05-11T05:29:53.874Z,101275.52
2023-05-11T05:32:22.322Z,101276.58
2023-05-11T05:34:50.429Z,101274.78
2023-05-11T05:37:18.536Z,101273.31
2023-05-11T05:39:48.327Z,101272.39
2023-05-11T05:42:16.722Z,101274.53
2023-05-11T05:44:44.756Z,101272.91
2023-05-11T05:47:13.075Z,101274.70
2023-05-11T05:49:41.539Z,101269.55
2023-05-11T05:52:10.244Z,101273.14
2023-05-11T05:54:41.745Z,101269.89
2023-05-11T05:57:09.974Z,101270.27
2023-05-11T05:59:38.094Z,101267.77
2023-05-11T06:02:06.762Z,101270.83
2023-05-11T06:04:34.994Z,101267.80
2023-05-11T06:07:03.923Z,101269.81
2023-05-11T06:09:32.834Z,101274.65
2023-05-11T06:12:01.478Z,101282.71
2023-05-11T06:14:29.608Z,101285.59
2023-05-11T06:16:58.543Z,101285.38
2023-05-11T06:19:26.666Z,101283.25
2023-05-11T06:21:55.229Z,101287.75
2023-05-11T06:24:23.408Z,101289.55
2023-05-11T06:26:51.442Z,101289.74
2023-05-11T06:29:19.625Z,101291.02
2023-05-11T06:31:48.675Z,101290.48
2023-05-11T06:34:16.941Z,101289.58
2023-05-11T06:36:44.919Z,101287.61
2023-05-11T06:39:14.058Z,101289.05
2023-05-11T06:41:42.616Z,101289.04
2023-05-11T06:44:10.702Z,101284.75
2023-05-11T06:46:39.452Z,101280.48
2023-05-11T06:49:08.326Z,101285.14
2023-05-11T06:51:36.984Z,101280.66
2023-05-11T06:54:05.312Z,101281.01
2023-05-11T06:56:33.391Z,101281.36
2023-05-11T06:59:01.411Z,101282.04
2023-05-11T07:01:30.349Z,101280.62
2023-05-11T07:03:58.420Z,101279.02
2023-05-11T07:06:26.535Z,101276.70
2023-05-11T07:08:56.586Z,101278.10
2023-05-11T07:11:25.303Z,101274.13
2023-05-11T07:13:54.024Z,101274.11
2023-05-11T07:16:22.611Z,101275.17
2023-05-11T07:18:50.974Z,101279.23
2023-05-11T07:21:19.064Z,101280.13
2023-05-11T07:23:48.199Z,101274.91
2023-05-11T07:26:16.306Z,101277.58
2023-05-11T07:28:44.456Z,101279.01
2023-05-11T07:31:12.734Z,101274.66
2023-05-11T07:33:41.420Z,101274.64
2023-05-11T07:36:09.792Z,101275.87
2023-05-11T07:38:38.443Z,101277.99
2023-05-11T07:41:07.440Z,101277.59
2023-05-11T07:43:36.398Z,101275.55
2023-05-11T07:46:04.695Z,101276.41
2023-05-11T07:48:33.139Z,101274.63
2023-05-11T07:51:01.861Z,101272.64
2023-05-11T07:53:30.037Z,101262.41
2023-05-11T07:55:58.119Z,101263.10
2023-05-11T07:58:26.203Z,101270.45
2023-05-11T08:00:54.945Z,101264.86
2023-05-11T08:03:23.691Z,101264.81
2023-05-11T08:05:52.420Z,101265.86
2023-05-11T08:08:20.813Z,101263.36
2023-05-11T08:10:48.892Z,101263.88
2023-05-11T08:13:17.326Z,101261.15
2023-05-11T08:15:45.513Z,101263.66
2023-05-11T08:18:13.803Z,101260.40
2023-05-11T08:20:42.527Z,101263.98
2023-05-11T08:23:12.549Z,101260.70
2023-05-11T08:25:40.930Z,101260.12
2023-05-11T08:28:08.915Z,101262.05
2023-05-11T08:30:37.655Z,101262.73
2023-05-11T08:33:17.610Z,101258.87
2023-05-11T08:35:54.222Z,101259.30
2023-05-11T08:38:22.351Z,101267.31
2023-05-11T08:40:51.817Z,101264.03
2023-05-11T08:43:24.658Z,101263.66
2023-05-11T08:46:00.780Z,101268.67
2023-05-11T08:48:30.152Z,101262.76
2023-05-11T08:50:59.672Z,101265.95
2023-05-11T08:53:28.798Z,101269.42
2023-05-11T08:55:59.655Z,101269.19
2023-05-11T08:58:30.019Z,101265.98
2023-05-11T09:00:59.404Z,101264.06
2023-05-11T09:03:30.276Z,101264.59
2023-05-11T09:06:01.916Z,101266.36
2023-05-11T09:08:31.828Z,101266.86
2023-05-11T09:11:01.488Z,101267.02
2023-05-11T09:13:31.238Z,101269.69
2023-05-11T09:16:00.463Z,101265.15
2023-05-11T09:18:31.482Z,101268.84
2023-05-11T09:21:01.755Z,101262.83
2023-05-11T09:23:32.477Z,101266.89
2023-05-11T09:26:01.170Z,101267.34
2023-05-11T09:31:03.781Z,101268.19
2023-05-11T09:33:32.150Z,101271.59
2023-05-11T09:36:01.046Z,101273.66
2023-05-11T09:38:29.379Z,101277.20
2023-05-11T09:40:57.598Z,101273.70
2023-05-11T09:43:28.358Z,101277.71
2023-05-11T09:46:00.835Z,101280.59
2023-05-11T09:48:32.498Z,101282.73
2023-05-11T09:51:08.520Z,101280.39
2023-05-11T09:53:39.314Z,101283.70
2023-05-11T09:56:10.218Z,101282.35
2023-05-11T09:58:50.897Z,101279.80
2023-05-11T10:01:32.838Z,101277.33
2023-05-11T10:04:13.165Z,101281.63
2023-05-11T10:06:53.829Z,101277.66
2023-05-11T10:09:26.836Z,101275.39
2023-05-11T10:11:56.817Z,101278.25
2023-05-11T10:14:27.813Z,101281.10
2023-05-11T10:16:58.695Z,101278.28
2023-05-11T10:19:28.175Z,101274.42
2023-05-11T10:21:57.385Z,101273.23
2023-05-11T10:24:27.467Z,101270.63
2023-05-11T10:26:57.657Z,101268.92
2023-05-11T10:29:26.735Z,101267.30
2023-05-11T10:31:58.003Z,101271.57
2023-05-11T10:34:29.325Z,101267.66
2023-05-11T10:37:00.675Z,101270.70
2023-05-11T10:39:31.882Z,101264.88
2023-05-11T10:42:18.220Z,101260.79
2023-05-11T10:45:14.503Z,101262.84
2023-05-11T10:48:20.672Z,101254.60
2023-05-11T10:51:11.105Z,101253.09
2023-05-11T10:54:22.047Z,101251.39
2023-05-11T10:57:33.512Z,101242.41
2023-05-11T11:00:29.532Z,101245.39
2023-05-11T11:03:12.493Z,101238.82
2023-05-11T11:05:41.764Z,101237.44
2023-05-11T11:08:10.107Z,101235.33
2023-05-11T11:10:40.997Z,101232.77
2023-05-11T11:13:11.856Z,101229.36
2023-05-11T11:15:58.403Z,101234.88
2023-05-11T11:18:31.017Z,101237.41
2023-05-11T11:21:00.652Z,101240.24
2023-05-11T11:23:47.214Z,101237.59
2023-05-11T11:26:17.483Z,101234.30
2023-05-11T11:28:55.229Z,101233.55
2023-05-11T11:31:31.195Z,101227.45
2023-05-11T11:34:25.226Z,101224.58
2023-05-11T11:36:59.284Z,101227.71
2023-05-11T11:39:41.185Z,101224.42
2023-05-11T11:42:31.932Z,101214.45
2023-05-11T11:45:29.529Z,101216.15
2023-05-11T11:48:31.734Z,101211.50
2023-05-11T11:51:09.449Z,101210.21
2023-05-11T11:53:40.805Z,101207.17
2023-05-11T11:56:29.055Z,101210.94
2023-05-11T11:59:00.941Z,101208.17
2023-05-11T12:01:36.509Z,101213.56
2023-05-11T12:04:04.744Z,101208.31
2023-05-11T12:06:46.202Z,101203.89
2023-05-11T12:09:18.746Z,101198.38
2023-05-11T12:11:47.000Z,101197.96
2023-05-11T12:14:15.818Z,101200.23
2023-05-11T12:17:00.563Z,101195.05
2023-05-11T12:19:30.444Z,101192.31
2023-05-11T12:21:59.113Z,101195.45
2023-05-11T12:24:27.150Z,101192.45
2023-05-11T12:26:56.529Z,101182.96
2023-05-11T12:29:25.400Z,101191.25
2023-05-11T12:31:54.164Z,101181.90
2023-05-11T12:34:23.191Z,101189.49
2023-05-11T12:36:53.772Z,101185.14
2023-05-11T12:39:24.976Z,101180.12
2023-05-11T12:41:56.719Z,101177.33
2023-05-11T12:44:27.045Z,101175.70
2023-05-11T12:46:55.763Z,101174.91
2023-05-11T12:49:26.976Z,101171.71
2023-05-11T12:52:05.940Z,101169.70
2023-05-11T12:54:35.405Z,101161.55
2023-05-11T12:57:04.976Z,101157.32
2023-05-11T12:59:41.828Z,101156.54
2023-05-11T13:02:20.822Z,101150.66
2023-05-11T13:04:49.101Z,101150.58
2023-05-11T13:07:27.178Z,101148.70
2023-05-11T13:10:00.953Z,101145.61
2023-05-11T13:12:31.739Z,101144.41
2023-05-11T13:15:12.427Z,101135.41
2023-05-11T13:17:43.285Z,101134.48
2023-05-11T13:20:38.241Z,101129.89
2023-05-11T13:23:14.307Z,101130.25
2023-05-11T13:25:45.451Z,101124.23
2023-05-11T13:28:15.288Z,101120.29
2023-05-11T13:30:44.244Z,101123.91
2023-05-11T13:33:13.244Z,101127.73
2023-05-11T13:35:42.841Z,101119.98
2023-05-11T13:38:12.192Z,101118.23
2023-05-11T13:40:40.670Z,101115.96
2023-05-11T13:43:08.728Z,101111.52
2023-05-11T13:45:37.263Z,101108.29
2023-05-11T13:48:06.011Z,101104.96
2023-05-11T13:50:34.242Z,101097.80
2023-05-11T13:53:02.445Z,101097.70
2023-05-11T13:55:30.506Z,101093.27
2023-05-11T13:57:59.131Z,101084.00
2023-05-11T14:00:27.482Z,101082.54
2023-05-11T14:02:56.080Z,101083.26
2023-05-11T14:05:24.742Z,101079.02
2023-05-11T14:07:52.887Z,101086.64
2023-05-11T14:10:21.489Z,101078.34
2023-05-11T14:12:50.020Z,101083.86
2023-05-11T14:15:18.559Z,101080.45
2023-05-11T14:17:46.877Z,101077.39
2023-05-11T14:20:15.400Z,101078.73
2023-05-11T14:22:43.514Z,101070.58
2023-05-11T14:25:11.780Z,101070.17
2023-05-11T14:27:39.893Z,101059.80
2023-05-11T14:30:08.647Z,101052.70
2023-05-11T14:32:37.498Z,101046.76
2023-05-11T14:35:05.823Z,101044.33
2023-05-11T14:37:34.096Z,101040.77
2023-05-11T14:40:02.138Z,101032.62
2023-05-11T14:42:30.268Z,101033.34
2023-05-11T14:44:58.440Z,101035.82
2023-05-11T14:47:27.181Z,101036.96
2023-05-11T14:49:55.317Z,101034.24
2023-05-11T14:52:23.385Z,101029.56
2023-05-11T14:54:51.741Z,101022.09
2023-05-11T14:57:19.907Z,101016.55
2023-05-11T14:59:59.114Z,101009.98
2023-05-11T15:02:29.401Z,101012.36
2023-05-11T15:04:57.979Z,101016.05
2023-05-11T15:07:26.557Z,101009.52
2023-05-11T15:09:54.652Z,100999.84
2023-05-11T15:12:22.741Z,100987.11
2023-05-11T15:14:50.749Z,100990.73
2023-05-11T15:17:19.248Z,100995.33
2023-05-11T15:19:47.315Z,100995.67
2023-05-11T15:22:15.444Z,100994.54
2023-05-11T15:24:43.577Z,100995.85
2023-05-11T15:27:11.653Z,100990.27
2023-05-11T15:29:39.880Z,100981.48
2023-05-11T15:32:08.801Z,100974.23
2023-05-11T15:34:47.226Z,100976.09
2023-05-11T15:37:19.384Z,100979.09
2023-05-11T15:39:47.683Z,100983.53
2023-05-11T15:42:15.939Z,100984.42
2023-05-11T15:44:44.519Z,100986.55
2023-05-11T15:47:12.773Z,100988.79
2023-05-11T15:49:40.880Z,100981.73
2023-05-11T15:52:10.734Z,100982.02
2023-05-11T15:54:40.177Z,100978.94
2023-05-11T15:57:08.830Z,100976.36
2023-05-11T15:59:36.893Z,100984.54
2023-05-11T16:02:06.060Z,100986.89
2023-05-11T16:04:34.186Z,100980.95
2023-05-11T16:07:02.353Z,100979.81
2023-05-11T16:09:30.366Z,100977.94
2023-05-11T16:11:58.485Z,100979.26
2023-05-11T16:14:26.996Z,100979.61
2023-05-11T16:16:55.228Z,100977.23
2023-05-11T16:19:23.348Z,100978.66
2023-05-11T16:21:51.940Z,100970.96
2023-05-11T16:24:20.958Z,100974.94
2023-05-11T16:26:49.090Z,100975.80
2023-05-11T16:29:17.284Z,100976.95
2023-05-11T16:31:45.676Z,100984.50
2023-05-11T16:34:14.751Z,100986.36
2023-05-11T16:36:42.876Z,100979.58
2023-05-11T16:39:11.438Z,100975.58
2023-05-11T16:41:39.647Z,100975.58
2023-05-11T16:44:08.145Z,100975.89
2023-05-11T16:46:36.175Z,100982.38
2023-05-11T16:49:05.110Z,100994.05
2023-05-11T16:51:33.466Z,100991.71
2023-05-11T16:54:01.558Z,100995.65
2023-05-11T16:56:29.745Z,100998.44
2023-05-11T16:58:58.163Z,100997.69
2023-05-11T17:01:26.342Z,100992.66
2023-05-11T17:03:54.935Z,100984.72
2023-05-11T17:06:24.384Z,100983.23
2023-05-11T17:08:52.676Z,100983.20
2023-05-11T17:11:21.574Z,100981.10
2023-05-11T17:13:50.407Z,100975.73
2023-05-11T17:16:18.765Z,100967.08
2023-05-11T17:18:48.299Z,100972.58
2023-05-11T17:21:16.456Z,100973.98
2023-05-11T17:23:44.650Z,100974.23
2023-05-11T17:26:13.502Z,100969.55
2023-05-11T17:28:42.253Z,100969.89
2023-05-11T17:31:12.194Z,100970.80
2023-05-11T17:33:41.911Z,100973.45
2023-05-11T17:36:10.367Z,100971.33
2023-05-11T17:38:38.488Z,100970.95
2023-05-11T17:41:06.628Z,100973.64
2023-05-11T17:43:35.561Z,100971.84
2023-05-11T17:46:04.012Z,100967.17
2023-05-11T17:48:32.397Z,100968.42
2023-05-11T17:51:00.818Z,100967.81
2023-05-11T17:53:29.594Z,100962.14
2023-05-11T17:56:01.043Z,100963.04
2023-05-11T17:58:29.340Z,100967.04
2023-05-11T18:00:57.501Z,100962.38
2023-05-11T18:03:25.901Z,100960.88
2023-05-11T18:05:54.967Z,100959.74
2023-05-11T18:08:24.104Z,100959.72
2023-05-11T18:10:52.594Z,100962.01
2023-05-11T18:13:21.026Z,100964.92
2023-05-11T18:15:49.640Z,100968.55
2023-05-11T18:18:17.997Z,100966.21
2023-05-11T18:20:45.970Z,100964.98
2023-05-11T18:23:14.308Z,100970.31
2023-05-11T18:25:42.858Z,100975.14
2023-05-11T18:28:11.038Z,100979.66
2023-05-11T18:30:39.707Z,100985.13
2023-05-11T18:33:07.884Z,100988.23
2023-05-11T18:35:36.747Z,100989.66
2023-05-11T18:38:04.926Z,100988.64
2023-05-11T18:40:33.521Z,100986.52
2023-05-11T18:43:01.678Z,100985.05
2023-05-11T18:45:29.999Z,100988.70
2023-05-11T18:47:58.472Z,100992.55
2023-05-11T18:50:27.387Z,100988.17
2023-05-11T18:52:58.832Z,100990.80
2023-05-11T18:55:33.191Z,100991.95
2023-05-11T18:58:04.102Z,100998.80
2023-05-11T19:00:32.259Z,101001.70
2023-05-11T19:03:00.446Z,101006.88
2023-05-11T19:05:28.746Z,101007.48
2023-05-11T19:07:57.198Z,101015.80
2023-05-11T19:10:25.392Z,101015.39
2023-05-11T19:12:53.728Z,101011.67
2023-05-11T19:15:22.650Z,101012.59
2023-05-11T19:17:50.882Z,101018.17
2023-05-11T19:20:19.360Z,101028.15
2023-05-11T19:22:48.175Z,101024.00
2023-05-11T19:25:16.429Z,101022.71
2023-05-11T19:27:44.542Z,101021.64
2023-05-11T19:30:12.903Z,101030.29
2023-05-11T19:32:42.344Z,101030.87
2023-05-11T19:35:12.087Z,101032.88
2023-05-11T19:37:41.574Z,101030.95
2023-05-11T19:40:37.183Z,101030.95
2023-05-11T19:42:57.920Z,101031.08
2023-05-11T19:45:26.196Z,101031.59
2023-05-11T19:47:54.290Z,101034.27
2023-05-11T19:50:24.477Z,101042.14
2023-05-11T19:52:53.120Z,101043.65
2023-05-11T19:55:21.339Z,101048.21
2023-05-11T19:57:49.971Z,101050.42
2023-05-11T20:00:18.753Z,101044.70
2023-05-11T20:02:47.889Z,101044.88
2023-05-11T20:05:16.097Z,101046.88
2023-05-11T20:07:44.738Z,101050.11
2023-05-11T20:10:13.462Z,101054.90
2023-05-11T20:12:41.712Z,101058.36
2023-05-11T20:15:12.885Z,101061.54
2023-05-11T20:17:41.202Z,101062.81
2023-05-11T20:20:10.339Z,101064.65
2023-05-11T20:22:38.604Z,101064.48
2023-05-11T20:25:16.970Z,101068.63
2023-05-11T20:27:46.704Z,101071.90
2023-05-11T20:30:15.720Z,101079.11
2023-05-11T20:35:15.551Z,101087.80
2023-05-11T20:37:46.844Z,101090.68
2023-05-11T20:40:16.625Z,101096.39
2023-05-11T20:42:44.856Z,101097.10
2023-05-11T20:45:13.183Z,101101.45
2023-05-11T20:47:42.067Z,101106.66
2023-05-11T20:50:11.046Z,101110.05
2023-05-11T20:52:39.369Z,101117.02
2023-05-11T20:55:08.293Z,101122.43
2023-05-11T20:57:36.250Z,101128.55
2023-05-11T21:00:05.221Z,101132.87
2023-05-11T21:02:34.494Z,101133.63
2023-05-11T21:05:04.059Z,101138.34
2023-05-11T21:07:32.618Z,101139.96
2023-05-11T21:10:01.499Z,101140.85
2023-05-11T21:12:29.708Z,101138.52
2023-05-11T21:14:57.796Z,101143.29
2023-05-11T21:17:26.395Z,101142.37
2023-05-11T21:19:54.568Z,101141.84
2023-05-11T21:22:22.573Z,101141.65
2023-05-11T21:24:50.663Z,101134.70
2023-05-11T21:27:19.177Z,101137.95
2023-05-11T21:29:47.260Z,101134.36
2023-05-11T21:32:15.530Z,101137.02
2023-05-11T21:34:43.885Z,101143.43
2023-05-11T21:37:12.074Z,101147.52
2023-05-11T21:39:40.919Z,101147.85
2023-05-11T21:42:09.099Z,101149.63
2023-05-11T21:44:38.503Z,101146.42
2023-05-11T21:47:07.843Z,101142.13
2023-05-11T21:49:35.891Z,101145.77
2023-05-11T21:52:04.853Z,101148.10
2023-05-11T21:54:33.991Z,101149.37
2023-05-11T21:57:02.137Z,101150.44
2023-05-11T21:59:30.296Z,101147.08
2023-05-11T22:01:58.635Z,101144.04
2023-05-11T22:04:27.070Z,101141.34
2023-05-11T22:06:58.836Z,101141.31
2023-05-11T22:09:28.866Z,101139.27
2023-05-11T22:11:57.476Z,101135.09
2023-05-11T22:14:25.564Z,101136.15
2023-05-11T22:16:53.749Z,101136.18
2023-05-11T22:19:21.919Z,101139.33
2023-05-11T22:21:50.064Z,101136.14
2023-05-11T22:24:18.353Z,101135.27
2023-05-11T22:26:46.860Z,101134.21
2023-05-11T22:29:15.125Z,101133.75
2023-05-11T22:31:45.885Z,101137.53
2023-05-11T22:34:15.295Z,101135.21
2023-05-11T22:36:43.641Z,101138.76
2023-05-11T22:39:11.734Z,101135.91
2023-05-11T22:41:39.798Z,101140.59
2023-05-11T22:44:09.033Z,101138.65
2023-05-11T22:46:37.053Z,101144.58
2023-05-11T22:49:05.070Z,101150.30
2023-05-11T22:51:33.516Z,101144.88
2023-05-11T22:54:01.835Z,101143.44
2023-05-11T22:56:30.714Z,101144.34
2023-05-11T22:58:59.081Z,101144.18
2023-05-11T23:01:30.445Z,101146.13
2023-05-11T23:03:58.604Z,101146.66
2023-05-11T23:06:26.635Z,101146.89
2023-05-11T23:08:54.625Z,101144.04
2023-05-11T23:11:23.242Z,101148.73
2023-05-11T23:13:52.242Z,101150.90
2023-05-11T23:16:20.346Z,101155.57
2023-05-11T23:18:49.045Z,101155.20
2023-05-11T23:21:17.258Z,101160.42
2023-05-11T23:23:45.371Z,101157.02
2023-05-11T23:26:13.538Z,101154.00
2023-05-11T23:28:41.758Z,101156.34
2023-05-11T23:31:10.011Z,101158.33
2023-05-11T23:33:38.505Z,101160.34
2023-05-11T23:36:07.089Z,101156.55
2023-05-11T23:38:35.276Z,101156.20
2023-05-11T23:41:03.656Z,101154.09
2023-05-11T23:43:31.686Z,101155.58
2023-05-11T23:45:59.744Z,101155.73
2023-05-11T23:48:28.055Z,101155.04
2023-05-11T23:50:56.198Z,101152.73
2023-05-11T23:53:24.467Z,101152.00
2023-05-11T23:55:52.807Z,101150.56
2023-05-11T23:58:20.966Z,101151.27
